createdAt,value
2023-04-20T00:00:21.953Z,3.67
2023-04-20T00:02:51.262Z,4.82
2023-04-20T00:05:17.936Z,5.40
2023-04-20T00:07:44.563Z,14.65
2023-04-20T00:10:11.238Z,4.82
2023-04-20T00:12:37.685Z,6.63
2023-04-20T00:15:04.761Z,5.07
2023-04-20T00:17:31.496Z,5.28
2023-04-20T00:19:58.146Z,6.80
2023-04-20T00:22:25.294Z,5.18
2023-04-20T00:24:54.989Z,5.97
2023-04-20T00:27:22.622Z,6.32
2023-04-20T00:29:49.127Z,7.70
2023-04-20T00:32:15.665Z,8.38
2023-04-20T00:34:42.093Z,7.00
2023-04-20T00:37:08.504Z,5.07
2023-04-20T00:39:35.003Z,4.80
2023-04-20T00:42:08.797Z,6.43
2023-04-20T00:44:35.919Z,6.30
2023-04-20T00:47:02.498Z,4.47
2023-04-20T00:49:30.502Z,9.55
2023-04-20T00:52:01.061Z,9.48
2023-04-20T00:54:30.386Z,7.20
2023-04-20T00:56:58.109Z,5.43
2023-04-20T00:59:24.919Z,5.95
2023-04-20T01:01:51.481Z,5.60
2023-04-20T01:04:18.697Z,8.00
2023-04-20T01:06:45.376Z,9.52
2023-04-20T01:09:12.543Z,7.60
2023-04-20T01:11:39.717Z,5.45
2023-04-20T01:14:06.623Z,6.78
2023-04-20T01:16:34.976Z,11.02
2023-04-20T01:19:01.625Z,11.25
2023-04-20T01:21:28.309Z,5.18
2023-04-20T01:23:57.802Z,7.00
2023-04-20T01:26:27.199Z,5.80
2023-04-20T01:28:55.956Z,7.13
2023-04-20T01:31:22.752Z,5.90
2023-04-20T01:33:50.342Z,5.40
2023-04-20T01:36:16.833Z,5.13
2023-04-20T01:38:43.447Z,8.57
2023-04-20T01:41:10.705Z,8.90
2023-04-20T01:43:38.389Z,8.80
2023-04-20T01:46:05.618Z,7.43
2023-04-20T01:48:32.657Z,8.82
2023-04-20T01:50:59.350Z,6.30
2023-04-20T01:53:28.730Z,7.40
2023-04-20T01:55:55.969Z,6.28
2023-04-20T01:58:22.574Z,6.10
2023-04-20T02:00:49.371Z,8.35
2023-04-20T02:03:16.401Z,8.45
2023-04-20T02:05:43.079Z,7.88
2023-04-20T02:08:09.604Z,7.13
2023-04-20T02:10:36.275Z,7.65
2023-04-20T02:13:03.234Z,7.65
2023-04-20T02:15:29.729Z,5.63
2023-04-20T02:17:58.078Z,7.93
2023-04-20T02:20:24.778Z,8.50
2023-04-20T02:22:51.211Z,6.63
2023-04-20T02:25:18.756Z,10.15
2023-04-20T02:27:45.260Z,7.22
2023-04-20T02:30:12.528Z,7.68
2023-04-20T02:32:39.062Z,7.75
2023-04-20T02:35:05.886Z,8.70
2023-04-20T02:37:32.377Z,9.00
2023-04-20T02:40:01.861Z,7.65
2023-04-20T02:42:31.495Z,11.40
2023-04-20T02:44:58.597Z,8.20
2023-04-20T02:47:25.099Z,9.43
2023-04-20T02:49:51.622Z,8.00
2023-04-20T02:52:18.139Z,8.02
2023-04-20T02:54:45.380Z,7.85
2023-04-20T02:57:11.911Z,7.97
2023-04-20T02:59:38.479Z,7.07
2023-04-20T03:02:05.245Z,10.68
2023-04-20T03:04:32.094Z,8.55
2023-04-20T03:06:59.942Z,9.55
2023-04-20T03:09:26.470Z,10.35
2023-04-20T03:11:53.035Z,10.23
2023-04-20T03:14:19.582Z,7.95
2023-04-20T03:16:46.366Z,9.48
2023-04-20T03:19:13.631Z,8.55
2023-04-20T03:21:40.488Z,16.50
2023-04-20T03:24:07.294Z,8.20
2023-04-20T03:26:33.756Z,12.48
2023-04-20T03:29:02.562Z,10.00
2023-04-20T03:31:29.038Z,10.63
2023-04-20T03:33:55.643Z,13.07
2023-04-20T03:36:22.612Z,12.30
2023-04-20T03:38:49.111Z,8.93
2023-04-20T03:41:15.813Z,9.48
2023-04-20T03:43:42.332Z,11.15
2023-04-20T03:46:08.793Z,10.30
2023-04-20T03:48:35.608Z,9.38
2023-04-20T03:51:03.014Z,12.65
2023-04-20T03:53:29.512Z,10.98
2023-04-20T03:55:56.103Z,13.18
2023-04-20T03:58:22.666Z,8.30
2023-04-20T04:00:49.087Z,14.93
2023-04-20T04:03:15.812Z,9.45
2023-04-20T04:05:42.479Z,11.52
2023-04-20T04:08:08.969Z,10.10
2023-04-20T04:10:35.688Z,9.32
2023-04-20T04:13:02.685Z,12.77
2023-04-20T04:15:29.156Z,14.23
2023-04-20T04:17:56.065Z,12.48
2023-04-20T04:20:22.674Z,10.27
2023-04-20T04:22:49.137Z,15.32
2023-04-20T04:25:15.629Z,14.10
2023-04-20T04:27:42.168Z,13.20
2023-04-20T04:30:09.653Z,15.00
2023-04-20T04:32:36.185Z,13.45
2023-04-20T04:35:02.731Z,16.20
2023-04-20T04:37:29.316Z,12.25
2023-04-20T04:39:55.766Z,14.82
2023-04-20T04:42:22.243Z,14.60
2023-04-20T04:44:48.708Z,16.40
2023-04-20T04:47:17.655Z,16.50
2023-04-20T04:49:46.614Z,17.88
2023-04-20T04:52:13.423Z,13.27
2023-04-20T04:54:39.985Z,19.25
2023-04-20T04:57:09.397Z,15.27
2023-04-20T04:59:37.159Z,16.30
2023-04-20T05:02:03.743Z,16.85
2023-04-20T05:04:30.967Z,16.25
2023-04-20T05:06:57.537Z,13.85
2023-04-20T05:09:23.992Z,13.18
2023-04-20T05:11:50.491Z,13.13
2023-04-20T05:14:17.077Z,13.68
2023-04-20T05:16:43.664Z,13.98
2023-04-20T05:19:10.397Z,11.43
2023-04-20T05:21:38.145Z,15.13
2023-04-20T05:24:06.586Z,19.13
2023-04-20T05:26:33.078Z,14.00
2023-04-20T05:28:59.585Z,14.65
2023-04-20T05:31:26.440Z,12.20
2023-04-20T05:33:53.264Z,13.95
2023-04-20T05:36:20.726Z,14.52
2023-04-20T05:38:47.261Z,11.77
2023-04-20T05:41:13.773Z,13.07
2023-04-20T05:43:40.959Z,12.38
2023-04-20T05:46:07.499Z,11.45
2023-04-20T05:48:36.321Z,13.02
2023-04-20T05:51:02.812Z,11.68
2023-04-20T05:53:29.316Z,10.57
2023-04-20T05:55:55.787Z,9.05
2023-04-20T05:58:22.323Z,15.45
2023-04-20T06:00:48.784Z,14.68
2023-04-20T06:03:15.535Z,13.52
2023-04-20T06:05:42.241Z,12.30
2023-04-20T06:08:08.878Z,11.80
2023-04-20T06:10:38.704Z,10.90
2023-04-20T06:13:08.150Z,11.52
2023-04-20T06:15:36.621Z,9.48
2023-04-20T06:18:05.849Z,8.90
2023-04-20T06:20:32.322Z,10.07
2023-04-20T06:22:58.748Z,10.15
2023-04-20T06:25:25.565Z,9.65
2023-04-20T06:27:53.033Z,11.60
2023-04-20T06:30:19.611Z,11.73
2023-04-20T06:32:46.125Z,10.70
2023-04-20T06:35:12.969Z,15.40
2023-04-20T06:37:40.352Z,10.60
2023-04-20T06:40:10.691Z,9.95
2023-04-20T06:42:37.518Z,10.32
2023-04-20T06:45:10.064Z,9.20
2023-04-20T06:47:37.290Z,8.68
2023-04-20T06:50:10.185Z,23.17
2023-04-20T06:52:41.046Z,13.60
2023-04-20T06:55:08.532Z,11.38
2023-04-20T06:57:41.022Z,8.32
2023-04-20T07:00:10.113Z,9.35
2023-04-20T07:02:50.918Z,8.82
2023-04-20T07:05:18.772Z,7.57
2023-04-20T07:07:45.865Z,10.18
2023-04-20T07:10:14.148Z,6.43
2023-04-20T07:12:43.590Z,8.80
2023-04-20T07:15:11.035Z,7.45
2023-04-20T07:17:37.879Z,6.38
2023-04-20T07:20:08.558Z,6.03
2023-04-20T07:22:39.513Z,8.27
2023-04-20T07:25:10.263Z,7.20
2023-04-20T07:27:41.544Z,6.55
2023-04-20T07:30:09.084Z,8.35
2023-04-20T07:32:38.889Z,5.47
2023-04-20T07:35:08.895Z,6.13
2023-04-20T07:37:39.280Z,5.60
2023-04-20T07:40:09.690Z,8.73
2023-04-20T07:42:37.455Z,10.00
2023-04-20T07:45:06.560Z,3.90
2023-04-20T07:47:39.239Z,5.53
2023-04-20T07:50:07.462Z,5.60
2023-04-20T07:52:37.260Z,4.53
2023-04-20T07:55:08.128Z,4.15
2023-04-20T07:57:38.287Z,5.15
2023-04-20T08:00:09.706Z,3.88
2023-04-20T08:02:39.242Z,7.38
2023-04-20T08:05:10.314Z,6.05
2023-04-20T08:07:37.416Z,4.20
2023-04-20T08:10:06.107Z,3.80
2023-04-20T08:12:32.643Z,5.97
2023-04-20T08:15:01.802Z,3.30
2023-04-20T08:17:28.444Z,3.65
2023-04-20T08:19:54.971Z,4.40
2023-04-20T08:22:21.625Z,4.13
2023-04-20T08:24:48.118Z,5.30
2023-04-20T08:27:14.614Z,3.55
2023-04-20T08:29:41.106Z,2.55
2023-04-20T08:32:12.403Z,3.47
2023-04-20T08:34:39.535Z,3.63
2023-04-20T08:37:08.989Z,5.75
2023-04-20T08:39:38.997Z,5.25
2023-04-20T08:42:06.597Z,5.75
2023-04-20T08:44:33.127Z,3.00
2023-04-20T08:46:59.973Z,3.35
2023-04-20T08:49:31.324Z,4.18
2023-04-20T08:51:57.958Z,3.92
2023-04-20T08:54:24.921Z,3.28
2023-04-20T08:56:51.605Z,5.15
2023-04-20T08:59:18.159Z,5.15
2023-04-20T09:01:44.890Z,5.22
2023-04-20T09:04:20.047Z,4.90
2023-04-20T09:06:50.347Z,8.65
2023-04-20T09:09:18.414Z,6.65
2023-04-20T09:11:45.501Z,6.07
2023-04-20T09:14:17.023Z,5.18
2023-04-20T09:16:52.130Z,4.15
2023-04-20T09:19:26.351Z,4.75
2023-04-20T09:21:56.420Z,5.28
2023-04-20T09:24:30.078Z,5.15
2023-04-20T09:26:57.112Z,5.28
2023-04-20T09:29:25.950Z,5.40
2023-04-20T09:31:52.786Z,8.35
2023-04-20T09:34:20.626Z,5.22
2023-04-20T09:36:52.297Z,5.97
2023-04-20T09:39:23.535Z,5.55
2023-04-20T09:41:51.983Z,5.97
2023-04-20T09:44:19.835Z,6.43
2023-04-20T09:46:47.166Z,5.60
2023-04-20T09:49:14.947Z,5.10
2023-04-20T09:51:47.713Z,5.35
2023-04-20T09:54:15.912Z,5.45
2023-04-20T09:56:44.685Z,8.75
2023-04-20T09:59:11.770Z,6.68
2023-04-20T10:01:38.446Z,6.10
2023-04-20T10:04:10.754Z,4.60
2023-04-20T10:06:38.105Z,5.85
2023-04-20T10:09:22.435Z,6.07
2023-04-20T10:11:53.470Z,6.00
2023-04-20T10:14:25.944Z,6.90
2023-04-20T10:17:07.003Z,7.18
2023-04-20T10:19:40.496Z,6.45
2023-04-20T10:22:08.749Z,6.30
2023-04-20T10:24:39.755Z,7.65
2023-04-20T10:27:20.677Z,5.90
2023-04-20T10:29:47.869Z,5.05
2023-04-20T10:32:33.356Z,6.43
2023-04-20T10:35:06.799Z,6.55
2023-04-20T10:37:36.467Z,5.85
2023-04-20T10:40:07.694Z,6.47
2023-04-20T10:42:44.496Z,5.45
2023-04-20T10:45:11.739Z,5.20
2023-04-20T10:47:40.701Z,4.97
2023-04-20T10:50:08.352Z,5.13
2023-04-20T10:52:37.304Z,4.55
2023-04-20T10:55:05.875Z,4.80
2023-04-20T10:57:36.235Z,6.93
2023-04-20T11:00:16.513Z,6.45
2023-04-20T11:02:59.023Z,5.70
2023-04-20T11:05:27.629Z,5.18
2023-04-20T11:08:05.177Z,5.80
2023-04-20T11:10:42.621Z,5.20
2023-04-20T11:13:25.688Z,4.15
2023-04-20T11:15:52.262Z,5.80
2023-04-20T11:18:18.928Z,6.50
2023-04-20T11:20:56.135Z,10.55
2023-04-20T11:23:24.660Z,5.35
2023-04-20T11:25:55.814Z,5.40
2023-04-20T11:28:22.492Z,7.95
2023-04-20T11:30:51.835Z,7.13
2023-04-20T11:33:29.020Z,5.47
2023-04-20T11:35:57.336Z,5.68
2023-04-20T11:38:32.188Z,4.88
2023-04-20T11:41:06.930Z,5.47
2023-04-20T11:43:36.497Z,7.57
2023-04-20T11:46:06.263Z,5.53
2023-04-20T11:48:32.895Z,6.15
2023-04-20T11:50:59.398Z,4.97
2023-04-20T11:53:26.776Z,4.75
2023-04-20T11:55:53.299Z,4.90
2023-04-20T11:58:19.744Z,7.85
2023-04-20T12:00:46.174Z,5.07
2023-04-20T12:03:12.824Z,7.20
2023-04-20T12:05:39.450Z,4.80
2023-04-20T12:08:09.413Z,5.10
2023-04-20T12:10:39.193Z,5.30
2023-04-20T12:13:09.099Z,4.70
2023-04-20T12:15:36.055Z,4.45
2023-04-20T12:18:02.658Z,4.50
2023-04-20T12:20:29.283Z,6.63
2023-04-20T12:22:56.691Z,4.60
2023-04-20T12:25:25.065Z,4.63
2023-04-20T12:27:51.679Z,4.65
2023-04-20T12:30:18.230Z,4.88
2023-04-20T12:32:44.819Z,4.97
2023-04-20T12:35:11.411Z,4.50
2023-04-20T12:37:38.285Z,4.50
2023-04-20T12:40:09.042Z,4.50
2023-04-20T12:42:35.580Z,5.65
2023-04-20T12:45:02.159Z,9.32
2023-04-20T12:47:28.661Z,5.97
2023-04-20T12:49:55.226Z,4.68
2023-04-20T12:52:21.832Z,7.10
2023-04-20T12:54:48.370Z,5.32
2023-04-20T12:57:14.829Z,4.38
2023-04-20T12:59:41.248Z,4.80
2023-04-20T13:02:09.887Z,4.40
2023-04-20T13:04:37.086Z,4.85
2023-04-20T13:07:03.601Z,4.82
2023-04-20T13:09:30.221Z,4.38
2023-04-20T13:11:57.771Z,4.22
2023-04-20T13:14:24.277Z,4.53
2023-04-20T13:16:52.351Z,5.13
2023-04-20T13:19:21.053Z,4.75
2023-04-20T13:21:47.548Z,4.78
2023-04-20T13:24:14.021Z,4.35
2023-04-20T13:26:43.379Z,4.82
2023-04-20T13:29:13.080Z,5.97
2023-04-20T13:31:41.132Z,5.13
2023-04-20T13:34:07.754Z,4.93
2023-04-20T13:36:34.289Z,4.72
2023-04-20T13:39:01.615Z,4.50
2023-04-20T13:41:28.085Z,4.90
2023-04-20T13:43:54.635Z,6.43
2023-04-20T13:46:21.336Z,5.07
2023-04-20T13:48:47.966Z,7.07
2023-04-20T13:51:14.418Z,8.27
2023-04-20T13:53:41.432Z,4.40
2023-04-20T13:56:08.155Z,5.20
2023-04-20T13:58:34.706Z,5.05
2023-04-20T14:01:01.162Z,4.75
2023-04-20T14:03:27.837Z,5.35
2023-04-20T14:05:54.626Z,4.75
2023-04-20T14:08:23.298Z,4.50
2023-04-20T14:10:49.797Z,4.70
2023-04-20T14:13:16.338Z,4.22
2023-04-20T14:15:43.561Z,6.13
2023-04-20T14:18:10.113Z,4.43
2023-04-20T14:20:36.644Z,4.13
2023-04-20T14:23:03.122Z,4.50
2023-04-20T14:25:29.586Z,8.07
2023-04-20T14:27:56.197Z,5.68
2023-04-20T14:30:22.752Z,4.18
2023-04-20T14:32:56.856Z,4.30
2023-04-20T14:35:24.948Z,4.30
2023-04-20T14:37:51.594Z,4.10
2023-04-20T14:40:19.161Z,3.80
2023-04-20T14:42:48.504Z,4.38
2023-04-20T14:45:17.792Z,6.22
2023-04-20T14:47:47.287Z,3.72
2023-04-20T14:50:15.949Z,4.10
2023-04-20T14:52:42.440Z,4.28
2023-04-20T14:55:09.249Z,4.60
2023-04-20T14:57:35.784Z,3.85
2023-04-20T15:00:04.114Z,3.65
2023-04-20T15:02:30.914Z,4.88
2023-04-20T15:04:58.804Z,3.20
2023-04-20T15:07:25.401Z,5.20
2023-04-20T15:09:51.964Z,3.70
2023-04-20T15:12:21.154Z,3.80
2023-04-20T15:14:47.676Z,4.68
2023-04-20T15:17:14.334Z,4.53
2023-04-20T15:19:46.678Z,3.80
2023-04-20T15:22:13.601Z,9.65
2023-04-20T15:24:40.629Z,5.07
2023-04-20T15:27:07.978Z,6.50
2023-04-20T15:29:34.584Z,4.00
2023-04-20T15:32:01.652Z,5.00
2023-04-20T15:34:28.800Z,4.60
2023-04-20T15:36:55.339Z,4.25
2023-04-20T15:39:21.837Z,3.95
2023-04-20T15:41:48.296Z,6.53
2023-04-20T15:44:17.606Z,3.65
2023-04-20T15:46:44.626Z,4.05
2023-04-20T15:49:11.713Z,3.72
2023-04-20T15:51:38.644Z,3.88
2023-04-20T15:54:06.869Z,7.32
2023-04-20T15:56:33.461Z,3.72
2023-04-20T15:58:59.949Z,3.70
2023-04-20T16:01:26.419Z,4.15
2023-04-20T16:03:53.280Z,3.90
2023-04-20T16:06:20.079Z,3.90
2023-04-20T16:08:53.139Z,3.28
2023-04-20T16:11:21.790Z,6.63
2023-04-20T16:13:48.502Z,3.50
2023-04-20T16:16:19.538Z,3.67
2023-04-20T16:18:49.185Z,3.42
2023-04-20T16:21:17.397Z,3.90
2023-04-20T16:23:44.031Z,4.47
2023-04-20T16:26:10.621Z,4.32
2023-04-20T16:28:38.041Z,3.95
2023-04-20T16:31:06.754Z,3.40
2023-04-20T16:33:36.789Z,5.28
2023-04-20T16:36:03.403Z,3.50
2023-04-20T16:38:30.156Z,3.30
2023-04-20T16:40:56.831Z,4.05
2023-04-20T16:43:23.259Z,9.25
2023-04-20T16:45:49.738Z,3.40
2023-04-20T16:48:19.346Z,3.97
2023-04-20T16:50:48.050Z,4.05
2023-04-20T16:53:14.572Z,3.78
2023-04-20T16:55:41.023Z,3.45
2023-04-20T16:58:07.507Z,5.95
2023-04-20T17:00:34.137Z,3.55
2023-04-20T17:03:03.987Z,3.95
2023-04-20T17:05:30.529Z,4.70
2023-04-20T17:07:57.070Z,3.05
2023-04-20T17:10:23.729Z,3.10
2023-04-20T17:12:50.689Z,3.33
2023-04-20T17:15:21.416Z,3.78
2023-04-20T17:17:50.982Z,3.67
2023-04-20T17:20:21.047Z,3.40
2023-04-20T17:22:52.924Z,3.28
2023-04-20T17:25:19.483Z,5.18
2023-04-20T17:27:48.425Z,3.40
2023-04-20T17:30:14.952Z,3.22
2023-04-20T17:32:41.949Z,3.60
2023-04-20T17:35:08.866Z,4.05
2023-04-20T17:37:36.535Z,3.80
2023-04-20T17:40:04.820Z,3.50
2023-04-20T17:42:31.432Z,4.05
2023-04-20T17:44:57.918Z,3.70
2023-04-20T17:47:24.434Z,4.93
2023-04-20T17:49:50.978Z,6.15
2023-04-20T17:52:23.048Z,5.85
2023-04-20T17:54:49.632Z,7.20
2023-04-20T17:57:18.491Z,3.78
2023-04-20T17:59:45.153Z,4.93
2023-04-20T18:02:12.715Z,5.55
2023-04-20T18:04:39.468Z,1.92
2023-04-20T18:07:06.094Z,2.08
2023-04-20T18:09:32.632Z,3.63
2023-04-20T18:11:59.138Z,1.25
2023-04-20T18:14:27.077Z,1.40
2023-04-20T18:16:55.181Z,3.20
2023-04-20T18:19:21.754Z,1.67
2023-04-20T18:21:51.290Z,2.70
2023-04-20T18:24:20.902Z,2.70
2023-04-20T18:26:50.575Z,2.97
2023-04-20T18:29:21.389Z,6.85
2023-04-20T18:31:55.963Z,1.85
2023-04-20T18:34:22.657Z,2.03
2023-04-20T18:36:51.940Z,2.53
2023-04-20T18:39:21.196Z,10.35
2023-04-20T18:41:51.603Z,5.55
2023-04-20T18:44:22.497Z,2.40
2023-04-20T18:46:52.273Z,3.13
2023-04-20T18:49:22.582Z,3.05
2023-04-20T18:52:04.929Z,4.22
2023-04-20T18:54:35.903Z,7.18
2023-04-20T18:57:02.988Z,1.70
2023-04-20T18:59:29.477Z,1.80
2023-04-20T19:01:56.097Z,3.28
2023-04-20T19:04:22.882Z,4.20
2023-04-20T19:06:50.388Z,4.05
2023-04-20T19:09:17.009Z,1.95
2023-04-20T19:11:43.534Z,1.60
2023-04-20T19:14:10.276Z,4.00
2023-04-20T19:16:37.076Z,1.50
2023-04-20T19:19:04.094Z,2.17
2023-04-20T19:21:32.212Z,3.67
2023-04-20T19:23:58.790Z,4.80
2023-04-20T19:26:25.393Z,2.50
2023-04-20T19:28:51.930Z,2.40
2023-04-20T19:31:22.818Z,2.00
2023-04-20T19:33:53.293Z,1.20
2023-04-20T19:36:20.805Z,2.28
2023-04-20T19:38:47.554Z,2.20
2023-04-20T19:41:15.059Z,3.33
2023-04-20T19:43:41.581Z,4.28
2023-04-20T19:46:09.904Z,2.50
2023-04-20T19:48:36.803Z,4.25
2023-04-20T19:51:04.021Z,2.72
2023-04-20T19:53:30.613Z,3.53
2023-04-20T19:55:57.353Z,2.25
2023-04-20T19:58:24.380Z,10.20
2023-04-20T20:00:50.918Z,2.97
2023-04-20T20:03:19.849Z,2.08
2023-04-20T20:05:52.565Z,1.52
2023-04-20T20:08:22.333Z,3.88
2023-04-20T20:10:51.888Z,3.55
2023-04-20T20:13:20.823Z,1.65
2023-04-20T20:15:50.466Z,5.65
2023-04-20T20:18:18.609Z,1.80
2023-04-20T20:20:45.256Z,2.42
2023-04-20T20:23:12.624Z,4.32
2023-04-20T20:25:40.009Z,3.92
2023-04-20T20:28:06.522Z,2.90
2023-04-20T20:30:33.088Z,14.63
2023-04-20T20:32:59.616Z,1.83
2023-04-20T20:35:31.474Z,1.83
2023-04-20T20:37:58.730Z,2.15
2023-04-20T20:40:25.639Z,1.63
2023-04-20T20:42:52.117Z,2.53
2023-04-20T20:45:21.968Z,4.55
2023-04-20T20:47:49.829Z,1.80
2023-04-20T20:50:16.752Z,3.17
2023-04-20T20:52:43.265Z,3.30
2023-04-20T20:55:10.511Z,1.85
2023-04-20T20:57:38.588Z,2.15
2023-04-20T21:00:08.351Z,1.58
2023-04-20T21:02:35.031Z,2.45
2023-04-20T21:05:01.795Z,3.97
2023-04-20T21:07:28.510Z,3.92
2023-04-20T21:09:54.993Z,3.90
2023-04-20T21:12:21.575Z,6.20
2023-04-20T21:14:51.168Z,12.05
2023-04-20T21:17:18.776Z,5.47
2023-04-20T21:19:45.300Z,3.50
2023-04-20T21:22:11.855Z,11.60
2023-04-20T21:24:38.309Z,4.47
2023-04-20T21:27:04.766Z,7.75
2023-04-20T21:29:31.525Z,7.03
2023-04-20T21:31:58.129Z,7.00
2023-04-20T21:34:24.569Z,6.88
2023-04-20T21:36:51.718Z,6.45
2023-04-20T21:39:21.671Z,10.20
2023-04-20T21:41:50.250Z,6.95
2023-04-20T21:44:16.719Z,6.43
2023-04-20T21:46:43.375Z,6.40
2023-04-20T21:49:09.915Z,13.00
2023-04-20T21:51:36.346Z,8.63
2023-04-20T21:54:02.882Z,6.93
2023-04-20T21:56:29.325Z,6.38
2023-04-20T21:58:55.755Z,8.30
2023-04-20T22:01:22.224Z,7.63
2023-04-20T22:03:50.887Z,7.75
2023-04-20T22:06:17.446Z,11.45
2023-04-20T22:08:44.024Z,8.13
2023-04-20T22:11:10.528Z,6.60
2023-04-20T22:13:37.631Z,8.23
2023-04-20T22:16:04.523Z,7.13
2023-04-20T22:18:31.056Z,9.20
2023-04-20T22:20:58.008Z,6.43
2023-04-20T22:23:24.436Z,7.35
2023-04-20T22:25:53.687Z,10.45
2023-04-20T22:28:23.648Z,8.45
2023-04-20T22:30:53.079Z,8.63
2023-04-20T22:33:21.657Z,9.60
2023-04-20T22:35:48.105Z,8.65
2023-04-20T22:38:14.534Z,7.15
2023-04-20T22:40:41.074Z,9.00
2023-04-20T22:43:07.515Z,8.07
2023-04-20T22:45:34.054Z,15.20
2023-04-20T22:48:01.486Z,7.97
2023-04-20T22:50:28.153Z,10.23
2023-04-20T22:52:54.633Z,10.18
2023-04-20T22:55:23.957Z,9.45
2023-04-20T22:57:52.723Z,8.25
2023-04-20T23:00:19.504Z,10.77
2023-04-20T23:02:46.094Z,12.68
2023-04-20T23:05:12.678Z,12.85
2023-04-20T23:07:39.580Z,8.70
2023-04-20T23:10:07.000Z,8.68
2023-04-20T23:12:33.492Z,11.23
2023-04-20T23:15:02.789Z,12.23
2023-04-20T23:17:29.299Z,8.90
2023-04-20T23:19:56.501Z,9.30
2023-04-20T23:22:25.958Z,9.48
2023-04-20T23:24:54.531Z,10.73
2023-04-20T23:27:20.973Z,9.55
2023-04-20T23:29:47.441Z,9.30
2023-04-20T23:32:14.004Z,8.20
2023-04-20T23:34:40.526Z,10.13
2023-04-20T23:37:07.016Z,12.20
2023-04-20T23:39:37.492Z,8.75
2023-04-20T23:42:06.623Z,10.43
2023-04-20T23:44:33.179Z,8.70
2023-04-20T23:46:59.626Z,11.63
2023-04-20T23:49:29.221Z,11.07
2023-04-20T23:51:58.718Z,11.70
2023-04-20T23:54:28.346Z,7.72
2023-04-20T23:56:57.658Z,11.02
2023-04-20T23:59:26.237Z,11.50
